« 演習1 小松飛行場 2017/11/13 mon | トップページ | 芝山3 成田国際空港 2017/10/26 thu »

2017/11/14

演習2 小松飛行場 2017/11/13 mon

その1からつづき

20171113_rjnk_200ensyu

場所を変えてRW24エンドへ、お帰りを待ちます。と、基地内の陣地内では・・

20171113_rjnk_201u853253

待っていると、上空をU-4さんが通過

20171113_rjnk_202u853253

85-3253 U-4 CAF Asama-a

お偉いさん到着。よーく見ると三つ桜

RJNK 130100Z VRB02KT 9999 FEW030 SCT250 12/02 Q1019

20171113_rjnk_203j9428

JA9428 AS350B NNK

20171113_rjnk_204ja337j

JAL185 RJTT-RJNK JA337J B737-846

20171113_rjnk_205ja13rj

IBX61 RJSS-RJSS JA13RJ CRJ-702ER

20171113_rjnk_206f978427

最初に帰ってきたのは、お爺さん

20171113_rjnk_207f978427

97-8427 F-4EJk 301SQ Lager15

20171113_rjnk_208f978426

97-8426 F-4EJk 301SQ L16

20171113_rjnk_209f978423

97-8423 F-4EJk 301SQ L17

20171113_rjnk_210f178440

17-8440 F-4EJk 301SQ L18

20171113_rjnk_211f428833

42-8833 F-15J 303SQ J03

20171113_rjnk_212f328817

32-8817 F-15J 303SQ J04

20171113_rjnk_213f328819

32-8819 F-15J 303SQ J01

20171113_rjnk_214f828897

82-8897 F-15J 303SQ J02

20171113_rjnk_215f528954

52-8954 F-15J 304SQ Jaido17

20171113_rjnk_216f828900

82-8900 F-15J 304SQ J18

20171113_rjnk_217f528951

52-8951 F-15J 204SQ Lanser01

20171113_rjnk_218f128924

12-8924 F-15J 204SQ L02

20171113_rjnk_219f728962

72-8962 F-15J 204SQ L03

20171113_rjnk_220f928913

92-8913 F-15J 204SQ L04

20171113_rjnk_221f028916

02-8916 F-15J 304SQ Jaido15

20171113_rjnk_222f428949

42-8949 F-15J 304SQ J16

20171113_rjnk_223f828091

82-8091 F-15DJ 306SQ R23

20171113_rjnk_224f828091

監視の中、次々と着陸しています。そんなのをのんびり見てる私たちは・・・

20171113_rjnk_225f928906

92-8906 F-15J 306SQ R24

RJNK 130200Z 18004KT 120V250 9999 FEW060 SCT250 14/02 Q1019

20171113_rjnk_226f328081

32-8081 F-15DJ AGR M13

20171113_rjnk_227f328083

32-8083 F-15DJ AGR M14

20171113_rjnk_228f038507

03-8507 F-2A 8SQ Lark17

20171113_rjnk_229f038503

03-8503 F-2A 8SQ L18

20171113_rjnk_230f638537

63-8537 F-2A 3SQ Mink01

20171113_rjnk_231f638537

13-8513 F-2A 3SQ M02

20171113_rjnk_232f138517

13-8517 F-2A 3SQ M03

20171113_rjnk_233f438128

43-8128 F-2B 3SQ M04

20171113_rjnk_234f438526

43-8526 F-2A 6SQ Jwell01

20171113_rjnk_235f538535

53-8535 F-2A 6SQ J02

20171113_rjnk_236f738542

73-8542 F-2A 6SQ J03

20171113_rjnk_237f938545

93-8545 F-2A 6SQ J04

20171113_rjnk_238f038504

出発機待ちでイニシャルアプローチ

20171113_rjnk_239f528088

52-8088 F-15DJ AGR M11

20171113_rjnk_240f128074

12-8074 F-15DJ AGR M12

20171113_rjnk_241f928070

こちらも着陸待ち

20171113_rjnk_242f228056

22-8056 F-15DJ 303SQ J01

通常の訓練に出発と思われる竜x4

20171113_rjnk_243f038504

03-8504 F-2A 8SQ Lark15

20171113_rjnk_244f038509

03-8509 F-2A 8SQ L16

20171113_rjnk_245f928070

92-8070 F-15DJ 306SQ R21

20171113_rjnk_246f228940

22-8940 F-15J 306SQ R22

20171113_rjnk_247f228809

22-8809 F-15J 306SQ R29

RWチェンジして、百里へ向かいました

20171113_rjnk_248f328822

32-8822 F-15J 303SQ R30

同僚機

風も変ったし、しばらくお昼休みだし、雲も出てきたし・・ なんて、理由をつけてこれにて離脱。しかし、こんなに大量に短時間に沢山拝めたのは、初めてで、イイもの見せてもらいました。

RJNK 130300Z 03004KT 350V080 9999 FEW030 BKN250 15/04 Q1017

|

« 演習1 小松飛行場 2017/11/13 mon | トップページ | 芝山3 成田国際空港 2017/10/26 thu »

小松飛行場」カテゴリの記事

コメント

コメントを書く



(ウェブ上には掲載しません)


コメントは記事投稿者が公開するまで表示されません。



トラックバック


この記事へのトラックバック一覧です: 演習2 小松飛行場 2017/11/13 mon:

« 演習1 小松飛行場 2017/11/13 mon | トップページ | 芝山3 成田国際空港 2017/10/26 thu »